sensor_id;sensor_type;location;lat;lon;timestamp;pressure;altitude;pressure_sealevel;temperature;humidity
9141;BME280;46330;50.822;7.126;2022-10-23T00:02:12;100851.63;;;12.44;100.00
9141;BME280;46330;50.822;7.126;2022-10-23T00:04:39;100846.38;;;12.44;100.00
9141;BME280;46330;50.822;7.126;2022-10-23T00:07:07;100841.19;;;12.41;100.00
9141;BME280;46330;50.822;7.126;2022-10-23T00:09:35;100842.13;;;12.38;100.00
9141;BME280;46330;50.822;7.126;2022-10-23T00:12:03;100831.66;;;12.38;100.00
9141;BME280;46330;50.822;7.126;2022-10-23T00:14:31;100824.66;;;12.39;100.00
9141;BME280;46330;50.822;7.126;2022-10-23T00:17:00;100827.34;;;12.34;100.00
9141;BME280;46330;50.822;7.126;2022-10-23T00:19:27;100830.88;;;12.33;100.00
9141;BME280;46330;50.822;7.126;2022-10-23T00:21:55;100836.97;;;12.35;100.00
9141;BME280;46330;50.822;7.126;2022-10-23T00:24:23;100836.03;;;12.36;100.00
9141;BME280;46330;50.822;7.126;2022-10-23T00:26:51;100826.56;;;12.31;100.00
9141;BME280;46330;50.822;7.126;2022-10-23T00:29:18;100837.09;;;12.29;100.00
9141;BME280;46330;50.822;7.126;2022-10-23T00:31:46;100830.16;;;12.27;100.00
9141;BME280;46330;50.822;7.126;2022-10-23T00:34:17;100843.25;;;12.27;100.00
9141;BME280;46330;50.822;7.126;2022-10-23T00:36:45;100836.34;;;12.24;100.00
9141;BME280;46330;50.822;7.126;2022-10-23T00:39:13;100834.50;;;12.28;100.00
9141;BME280;46330;50.822;7.126;2022-10-23T00:41:40;100839.81;;;12.25;100.00
9141;BME280;46330;50.822;7.126;2022-10-23T00:47:15;100825.13;;;12.18;100.00
9141;BME280;46330;50.822;7.126;2022-10-23T00:49:44;100835.66;;;12.15;100.00
9141;BME280;46330;50.822;7.126;2022-10-23T00:52:12;100830.34;;;12.18;100.00
9141;BME280;46330;50.822;7.126;2022-10-23T00:54:41;100831.28;;;12.17;100.00
9141;BME280;46330;50.822;7.126;2022-10-23T00:57:13;100816.38;;;12.17;100.00
9141;BME280;46330;50.822;7.126;2022-10-23T00:59:41;100824.22;;;12.19;100.00
9141;BME280;46330;50.822;7.126;2022-10-23T01:02:09;100821.53;;;12.22;100.00
9141;BME280;46330;50.822;7.126;2022-10-23T01:04:37;100814.47;;;12.24;100.00
9141;BME280;46330;50.822;7.126;2022-10-23T01:07:11;100803.09;;;12.26;100.00
9141;BME280;46330;50.822;7.126;2022-10-23T01:09:45;100815.34;;;12.24;100.00
9141;BME280;46330;50.822;7.126;2022-10-23T01:12:23;100812.72;;;12.26;100.00
9141;BME280;46330;50.822;7.126;2022-10-23T01:14:59;100810.97;;;12.25;100.00
9141;BME280;46330;50.822;7.126;2022-10-23T01:17:34;100820.53;;;12.27;100.00
9141;BME280;46330;50.822;7.126;2022-10-23T01:20:29;100824.00;;;12.29;100.00
9141;BME280;46330;50.822;7.126;2022-10-23T01:23:26;100817.97;;;12.24;100.00
9141;BME280;46330;50.822;7.126;2022-10-23T01:26:25;100817.94;;;12.26;100.00
9141;BME280;46330;50.822;7.126;2022-10-23T01:28:58;100817.16;;;12.22;100.00
9141;BME280;46330;50.822;7.126;2022-10-23T01:31:33;100808.47;;;12.20;100.00
9141;BME280;46330;50.822;7.126;2022-10-23T01:34:08;100814.56;;;12.21;100.00
9141;BME280;46330;50.822;7.126;2022-10-23T01:36:42;100813.75;;;12.19;100.00
9141;BME280;46330;50.822;7.126;2022-10-23T01:39:16;100812.91;;;12.17;100.00
9141;BME280;46330;50.822;7.126;2022-10-23T01:41:48;100809.38;;;12.18;100.00
9141;BME280;46330;50.822;7.126;2022-10-23T01:44:26;100807.59;;;12.20;100.00
9141;BME280;46330;50.822;7.126;2022-10-23T01:46:56;100803.31;;;12.16;100.00
9141;BME280;46330;50.822;7.126;2022-10-23T01:49:27;100798.16;;;12.13;100.00
9141;BME280;46330;50.822;7.126;2022-10-23T01:52:01;100794.66;;;12.12;100.00
9141;BME280;46330;50.822;7.126;2022-10-23T01:54:31;100799.97;;;12.09;100.00
9141;BME280;46330;50.822;7.126;2022-10-23T01:57:01;100799.09;;;12.09;100.00
9141;BME280;46330;50.822;7.126;2022-10-23T01:59:35;100794.00;;;12.03;100.00
9141;BME280;46330;50.822;7.126;2022-10-23T02:02:06;100794.00;;;12.03;100.00
9141;BME280;46330;50.822;7.126;2022-10-23T02:04:44;100783.72;;;11.95;100.00
9141;BME280;46330;50.822;7.126;2022-10-23T02:07:14;100782.84;;;11.93;100.00
9141;BME280;46330;50.822;7.126;2022-10-23T02:09:42;100770.81;;;11.86;100.00
9141;BME280;46330;50.822;7.126;2022-10-23T02:12:13;100755.91;;;11.86;100.00
9141;BME280;46330;50.822;7.126;2022-10-23T02:14:52;100763.94;;;11.80;100.00
9141;BME280;46330;50.822;7.126;2022-10-23T02:17:28;100762.16;;;11.81;100.00
9141;BME280;46330;50.822;7.126;2022-10-23T02:20:02;100761.28;;;11.82;100.00
9141;BME280;46330;50.822;7.126;2022-10-23T02:22:38;100755.25;;;11.78;100.00
9141;BME280;46330;50.822;7.126;2022-10-23T02:25:11;100742.16;;;11.77;100.00
9141;BME280;46330;50.822;7.126;2022-10-23T02:27:44;100755.19;;;11.80;100.00
9141;BME280;46330;50.822;7.126;2022-10-23T02:30:18;100745.59;;;11.80;100.00
9141;BME280;46330;50.822;7.126;2022-10-23T02:32:54;100745.50;;;11.83;100.00
9141;BME280;46330;50.822;7.126;2022-10-23T02:35:24;100737.69;;;11.82;100.00
9141;BME280;46330;50.822;7.126;2022-10-23T02:38:01;100732.41;;;11.83;100.00
9141;BME280;46330;50.822;7.126;2022-10-23T02:40:35;100731.56;;;11.83;100.00
9141;BME280;46330;50.822;7.126;2022-10-23T02:43:11;100729.75;;;11.85;100.00
9141;BME280;46330;50.822;7.126;2022-10-23T02:45:47;100727.88;;;11.90;100.00
9141;BME280;46330;50.822;7.126;2022-10-23T02:48:21;100726.94;;;11.93;100.00
9141;BME280;46330;50.822;7.126;2022-10-23T02:50:53;100725.19;;;11.93;100.00
9141;BME280;46330;50.822;7.126;2022-10-23T02:53:29;100724.31;;;11.94;100.00
9141;BME280;46330;50.822;7.126;2022-10-23T02:56:02;100716.38;;;11.96;100.00
9141;BME280;46330;50.822;7.126;2022-10-23T02:58:40;100710.19;;;12.00;100.00
9141;BME280;46330;50.822;7.126;2022-10-23T03:01:15;100716.31;;;11.99;100.00
9141;BME280;46330;50.822;7.126;2022-10-23T03:03:47;100728.53;;;12.01;100.00
9141;BME280;46330;50.822;7.126;2022-10-23T03:06:18;100711.88;;;12.02;100.00
9141;BME280;46330;50.822;7.126;2022-10-23T03:08:52;100682.13;;;12.03;100.00
9141;BME280;46330;50.822;7.126;2022-10-23T03:11:20;100677.72;;;12.05;100.00
9141;BME280;46330;50.822;7.126;2022-10-23T03:13:48;100688.19;;;12.05;100.00
9141;BME280;46330;50.822;7.126;2022-10-23T03:16:17;100686.41;;;12.07;100.00
9141;BME280;46330;50.822;7.126;2022-10-23T03:18:50;100674.19;;;12.08;100.00
9141;BME280;46330;50.822;7.126;2022-10-23T03:21:18;100667.16;;;12.08;100.00
9141;BME280;46330;50.822;7.126;2022-10-23T03:23:50;100670.56;;;12.12;100.00
9141;BME280;46330;50.822;7.126;2022-10-23T03:26:25;100668.72;;;12.15;100.00
9141;BME280;46330;50.822;7.126;2022-10-23T03:28:53;100662.59;;;12.16;100.00
9141;BME280;46330;50.822;7.126;2022-10-23T03:31:23;100658.28;;;12.14;100.00
9141;BME280;46330;50.822;7.126;2022-10-23T03:33:55;100655.59;;;12.17;100.00
9141;BME280;46330;50.822;7.126;2022-10-23T03:36:23;100660.91;;;12.14;100.00
9141;BME280;46330;50.822;7.126;2022-10-23T03:38:52;100665.22;;;12.15;100.00
9141;BME280;46330;50.822;7.126;2022-10-23T03:41:20;100671.41;;;12.14;100.00
9141;BME280;46330;50.822;7.126;2022-10-23T03:43:47;100671.50;;;12.09;100.00
9141;BME280;46330;50.822;7.126;2022-10-23T03:46:15;100672.31;;;12.11;100.00
9141;BME280;46330;50.822;7.126;2022-10-23T03:48:45;100675.81;;;12.12;100.00
9141;BME280;46330;50.822;7.126;2022-10-23T03:51:12;100682.81;;;12.11;100.00
9141;BME280;46330;50.822;7.126;2022-10-23T03:53:40;100690.72;;;12.10;100.00
9141;BME280;46330;50.822;7.126;2022-10-23T03:56:08;100689.78;;;12.12;100.00
9141;BME280;46330;50.822;7.126;2022-10-23T03:58:35;100682.00;;;12.09;100.00
9141;BME280;46330;50.822;7.126;2022-10-23T04:01:03;100679.34;;;12.11;100.00
9141;BME280;46330;50.822;7.126;2022-10-23T04:03:31;100670.69;;;12.07;100.00
9141;BME280;46330;50.822;7.126;2022-10-23T04:06:01;100666.31;;;12.08;100.00
9141;BME280;46330;50.822;7.126;2022-10-23T04:08:29;100669.84;;;12.05;100.00
9141;BME280;46330;50.822;7.126;2022-10-23T04:10:56;100670.78;;;12.03;100.00
9141;BME280;46330;50.822;7.126;2022-10-23T04:13:40;100662.94;;;12.03;100.00
9141;BME280;46330;50.822;7.126;2022-10-23T04:16:08;100659.34;;;12.05;100.00
9141;BME280;46330;50.822;7.126;2022-10-23T04:18:38;100654.97;;;12.06;100.00
9141;BME280;46330;50.822;7.126;2022-10-23T04:21:10;100649.78;;;12.04;100.00
9141;BME280;46330;50.822;7.126;2022-10-23T04:23:38;100653.28;;;12.05;100.00
9141;BME280;46330;50.822;7.126;2022-10-23T04:26:11;100665.53;;;12.03;100.00
9141;BME280;46330;50.822;7.126;2022-10-23T04:28:39;100660.34;;;12.01;100.00
9141;BME280;46330;50.822;7.126;2022-10-23T04:31:07;100648.22;;;11.97;100.00
9141;BME280;46330;50.822;7.126;2022-10-23T04:33:39;100653.47;;;11.96;100.00
9141;BME280;46330;50.822;7.126;2022-10-23T04:36:09;100659.56;;;11.98;100.00
9141;BME280;46330;50.822;7.126;2022-10-23T04:38:38;100656.09;;;11.96;100.00
9141;BME280;46330;50.822;7.126;2022-10-23T04:41:06;100655.28;;;11.95;100.00
9141;BME280;46330;50.822;7.126;2022-10-23T04:43:34;100656.97;;;11.96;100.00
9141;BME280;46330;50.822;7.126;2022-10-23T04:46:02;100648.22;;;11.97;100.00
9141;BME280;46330;50.822;7.126;2022-10-23T04:48:30;100642.97;;;11.97;100.00
9141;BME280;46330;50.822;7.126;2022-10-23T04:51:17;100642.88;;;12.02;100.00
9141;BME280;46330;50.822;7.126;2022-10-23T04:54:05;100627.09;;;12.03;100.00
9141;BME280;46330;50.822;7.126;2022-10-23T04:56:55;100633.94;;;12.09;100.00
9141;BME280;46330;50.822;7.126;2022-10-23T04:59:23;100619.06;;;12.09;100.00
9141;BME280;46330;50.822;7.126;2022-10-23T05:01:51;100620.66;;;12.15;100.00
9141;BME280;46330;50.822;7.126;2022-10-23T05:04:22;100630.34;;;12.13;100.00
9141;BME280;46330;50.822;7.126;2022-10-23T05:07:11;100625.97;;;12.13;100.00
9141;BME280;46330;50.822;7.126;2022-10-23T05:09:50;100625.00;;;12.16;100.00
9141;BME280;46330;50.822;7.126;2022-10-23T05:12:25;100621.50;;;12.17;100.00
9141;BME280;46330;50.822;7.126;2022-10-23T05:14:53;100612.00;;;12.13;100.00
9141;BME280;46330;50.822;7.126;2022-10-23T05:17:26;100618.09;;;12.13;100.00
9141;BME280;46330;50.822;7.126;2022-10-23T05:19:56;100627.63;;;12.16;100.00
9141;BME280;46330;50.822;7.126;2022-10-23T05:22:32;100620.63;;;12.16;100.00
9141;BME280;46330;50.822;7.126;2022-10-23T05:25:06;100604.94;;;12.15;100.00
9141;BME280;46330;50.822;7.126;2022-10-23T05:27:34;100600.53;;;12.17;100.00
9141;BME280;46330;50.822;7.126;2022-10-23T05:30:08;100601.34;;;12.19;100.00
9141;BME280;46330;50.822;7.126;2022-10-23T05:32:37;100594.44;;;12.15;100.00
9141;BME280;46330;50.822;7.126;2022-10-23T05:35:07;100607.56;;;12.15;100.00
9141;BME280;46330;50.822;7.126;2022-10-23T05:37:39;100602.38;;;12.13;100.00
9141;BME280;46330;50.822;7.126;2022-10-23T05:40:12;100597.13;;;12.13;100.00
9141;BME280;46330;50.822;7.126;2022-10-23T05:42:41;100590.94;;;12.16;100.00
9141;BME280;46330;50.822;7.126;2022-10-23T05:45:13;100583.09;;;12.14;100.00
9141;BME280;46330;50.822;7.126;2022-10-23T05:47:59;100580.44;;;12.16;100.00
9141;BME280;46330;50.822;7.126;2022-10-23T05:51:10;100581.34;;;12.15;100.00
9141;BME280;46330;50.822;7.126;2022-10-23T05:53:54;100574.47;;;12.11;100.00
9141;BME280;46330;50.822;7.126;2022-10-23T05:56:33;100567.44;;;12.11;100.00
9141;BME280;46330;50.822;7.126;2022-10-23T05:59:07;100568.38;;;12.10;100.00
9141;BME280;46330;50.822;7.126;2022-10-23T06:01:47;100565.69;;;12.12;100.00
9141;BME280;46330;50.822;7.126;2022-10-23T06:04:25;100564.00;;;12.09;100.00
9141;BME280;46330;50.822;7.126;2022-10-23T06:07:11;100552.72;;;12.07;100.00
9141;BME280;46330;50.822;7.126;2022-10-23T06:09:43;100551.78;;;12.08;100.00
9141;BME280;46330;50.822;7.126;2022-10-23T06:12:11;100546.47;;;12.11;100.00
9141;BME280;46330;50.822;7.126;2022-10-23T06:14:42;100549.06;;;12.13;100.00
9141;BME280;46330;50.822;7.126;2022-10-23T06:17:11;100553.44;;;12.12;100.00
9141;BME280;46330;50.822;7.126;2022-10-23T06:19:42;100548.09;;;12.15;100.00
9141;BME280;46330;50.822;7.126;2022-10-23T06:22:13;100558.50;;;12.20;100.00
9141;BME280;46330;50.822;7.126;2022-10-23T06:24:50;100550.47;;;12.24;100.00
9141;BME280;46330;50.822;7.126;2022-10-23T06:27:24;100549.31;;;12.34;100.00
9141;BME280;46330;50.822;7.126;2022-10-23T06:29:53;100550.03;;;12.39;100.00
9141;BME280;46330;50.822;7.126;2022-10-23T06:32:21;100555.97;;;12.46;100.00
9141;BME280;46330;50.822;7.126;2022-10-23T06:35:05;100554.94;;;12.52;100.00
9141;BME280;46330;50.822;7.126;2022-10-23T06:37:34;100562.63;;;12.59;100.00
9141;BME280;46330;50.822;7.126;2022-10-23T06:40:10;100549.22;;;12.68;100.00
9141;BME280;46330;50.822;7.126;2022-10-23T06:42:54;100548.25;;;12.72;100.00
9141;BME280;46330;50.822;7.126;2022-10-23T06:45:37;100540.19;;;12.78;100.00
9141;BME280;46330;50.822;7.126;2022-10-23T06:48:11;100531.31;;;12.82;100.00
9141;BME280;46330;50.822;7.126;2022-10-23T06:50:53;100532.16;;;12.83;100.00
9141;BME280;46330;50.822;7.126;2022-10-23T06:53:32;100537.38;;;12.84;100.00
9141;BME280;46330;50.822;7.126;2022-10-23T06:56:10;100531.22;;;12.85;100.00
9141;BME280;46330;50.822;7.126;2022-10-23T06:58:39;100531.13;;;12.88;100.00
9141;BME280;46330;50.822;7.126;2022-10-23T07:01:13;100527.28;;;12.99;100.00
9141;BME280;46330;50.822;7.126;2022-10-23T07:03:43;100529.69;;;13.06;100.00
9141;BME280;46330;50.822;7.126;2022-10-23T07:06:11;100531.25;;;13.13;100.00
9141;BME280;46330;50.822;7.126;2022-10-23T07:08:40;100528.66;;;13.12;100.00
9141;BME280;46330;50.822;7.126;2022-10-23T07:11:28;100529.50;;;13.14;100.00
9141;BME280;46330;50.822;7.126;2022-10-23T07:13:57;100528.44;;;13.19;100.00
9141;BME280;46330;50.822;7.126;2022-10-23T07:16:25;100531.94;;;13.20;100.00
9141;BME280;46330;50.822;7.126;2022-10-23T07:18:55;100537.03;;;13.24;100.00
9141;BME280;46330;50.822;7.126;2022-10-23T07:21:25;100538.50;;;13.33;100.00
9141;BME280;46330;50.822;7.126;2022-10-23T07:23:57;100530.50;;;13.36;100.00
9141;BME280;46330;50.822;7.126;2022-10-23T07:26:27;100539.13;;;13.41;100.00
9141;BME280;46330;50.822;7.126;2022-10-23T07:28:56;100537.94;;;13.50;99.95
9141;BME280;46330;50.822;7.126;2022-10-23T07:31:25;100528.13;;;13.55;99.48
9141;BME280;46330;50.822;7.126;2022-10-23T07:34:12;100516.38;;;13.66;99.12
9141;BME280;46330;50.822;7.126;2022-10-23T07:36:41;100528.97;;;13.57;98.97
9141;BME280;46330;50.822;7.126;2022-10-23T07:39:09;100544.34;;;13.67;99.28
9141;BME280;46330;50.822;7.126;2022-10-23T07:41:46;100530.41;;;13.65;98.74
9141;BME280;46330;50.822;7.126;2022-10-23T07:44:14;100536.16;;;13.76;98.53
9141;BME280;46330;50.822;7.126;2022-10-23T07:46:41;100522.28;;;13.73;98.03
9141;BME280;46330;50.822;7.126;2022-10-23T07:49:10;100522.09;;;13.79;97.71
9141;BME280;46330;50.822;7.126;2022-10-23T07:51:39;100532.31;;;13.86;97.44
9141;BME280;46330;50.822;7.126;2022-10-23T07:54:09;100528.03;;;13.84;97.53
9141;BME280;46330;50.822;7.126;2022-10-23T07:56:38;100515.97;;;13.78;97.72
9141;BME280;46330;50.822;7.126;2022-10-23T07:59:16;100523.41;;;13.90;97.85
9141;BME280;46330;50.822;7.126;2022-10-23T08:01:52;100526.94;;;13.89;97.20
9141;BME280;46330;50.822;7.126;2022-10-23T08:04:28;100531.97;;;13.97;97.24
9141;BME280;46330;50.822;7.126;2022-10-23T08:07:07;100519.34;;;14.07;97.51
9141;BME280;46330;50.822;7.126;2022-10-23T08:09:40;100508.53;;;14.14;95.73
9141;BME280;46330;50.822;7.126;2022-10-23T08:12:08;100521.41;;;14.70;93.59
9141;BME280;46330;50.822;7.126;2022-10-23T08:14:37;100513.63;;;15.12;90.35
9141;BME280;46330;50.822;7.126;2022-10-23T08:17:06;100507.72;;;14.83;91.36
9141;BME280;46330;50.822;7.126;2022-10-23T08:20:01;100501.94;;;15.19;90.02
9141;BME280;46330;50.822;7.126;2022-10-23T08:22:36;100507.81;;;15.03;90.07
9141;BME280;46330;50.822;7.126;2022-10-23T08:25:05;100516.50;;;15.05;90.60
9141;BME280;46330;50.822;7.126;2022-10-23T08:27:32;100511.34;;;15.02;90.66
9141;BME280;46330;50.822;7.126;2022-10-23T08:30:02;100504.06;;;15.09;89.72
9141;BME280;46330;50.822;7.126;2022-10-23T08:32:30;100505.56;;;15.16;90.36
9141;BME280;46330;50.822;7.126;2022-10-23T08:35:00;100506.59;;;15.12;90.01
9141;BME280;46330;50.822;7.126;2022-10-23T08:37:30;100509.72;;;15.22;89.74
9141;BME280;46330;50.822;7.126;2022-10-23T08:39:58;100509.75;;;15.20;89.45
9141;BME280;46330;50.822;7.126;2022-10-23T08:43:00;100496.94;;;15.33;89.43
9141;BME280;46330;50.822;7.126;2022-10-23T08:45:34;100500.75;;;15.47;88.37
9141;BME280;46330;50.822;7.126;2022-10-23T08:48:17;100489.13;;;15.31;89.09
9141;BME280;46330;50.822;7.126;2022-10-23T08:51:20;100492.47;;;15.56;88.20
9141;BME280;46330;50.822;7.126;2022-10-23T08:53:52;100488.31;;;15.91;86.54
9141;BME280;46330;50.822;7.126;2022-10-23T08:56:24;100476.69;;;16.54;83.84
9141;BME280;46330;50.822;7.126;2022-10-23T08:58:57;100474.91;;;16.55;82.75
9141;BME280;46330;50.822;7.126;2022-10-23T09:01:36;100468.94;;;16.12;85.26
9141;BME280;46330;50.822;7.126;2022-10-23T09:04:09;100457.00;;;17.33;79.97
9141;BME280;46330;50.822;7.126;2022-10-23T09:06:40;100464.69;;;17.73;77.18
9141;BME280;46330;50.822;7.126;2022-10-23T09:09:33;100459.88;;;17.11;79.68
9141;BME280;46330;50.822;7.126;2022-10-23T09:12:06;100457.28;;;17.10;80.67
9141;BME280;46330;50.822;7.126;2022-10-23T09:14:47;100453.16;;;17.04;80.66
9141;BME280;46330;50.822;7.126;2022-10-23T09:17:24;100447.81;;;17.06;81.52
9141;BME280;46330;50.822;7.126;2022-10-23T09:19:58;100440.06;;;16.84;81.92
9141;BME280;46330;50.822;7.126;2022-10-23T09:22:27;100442.00;;;16.81;82.21
9141;BME280;46330;50.822;7.126;2022-10-23T09:24:55;100431.97;;;17.06;81.81
9141;BME280;46330;50.822;7.126;2022-10-23T09:27:23;100436.38;;;17.23;80.22
9141;BME280;46330;50.822;7.126;2022-10-23T09:29:52;100436.81;;;17.49;79.25
9141;BME280;46330;50.822;7.126;2022-10-23T09:32:33;100423.31;;;17.55;78.85
9141;BME280;46330;50.822;7.126;2022-10-23T09:35:01;100421.34;;;17.59;79.78
9141;BME280;46330;50.822;7.126;2022-10-23T09:37:31;100427.72;;;17.55;78.51
9141;BME280;46330;50.822;7.126;2022-10-23T09:40:02;100428.19;;;18.28;75.34
9141;BME280;46330;50.822;7.126;2022-10-23T09:42:30;100437.75;;;18.31;75.11
9141;BME280;46330;50.822;7.126;2022-10-23T09:44:58;100436.50;;;18.38;75.09
9141;BME280;46330;50.822;7.126;2022-10-23T09:47:27;100440.59;;;18.44;74.11
9141;BME280;46330;50.822;7.126;2022-10-23T09:49:56;100441.25;;;18.16;74.80
9141;BME280;46330;50.822;7.126;2022-10-23T09:52:28;100430.59;;;18.33;73.99
9141;BME280;46330;50.822;7.126;2022-10-23T09:55:02;100429.63;;;18.18;73.24
9141;BME280;46330;50.822;7.126;2022-10-23T09:57:43;100436.66;;;18.35;73.26
9141;BME280;46330;50.822;7.126;2022-10-23T10:00:16;100437.16;;;18.26;72.80
9141;BME280;46330;50.822;7.126;2022-10-23T10:02:54;100432.72;;;17.94;73.90
9141;BME280;46330;50.822;7.126;2022-10-23T10:05:41;100438.50;;;18.02;74.22
9141;BME280;46330;50.822;7.126;2022-10-23T10:08:21;100434.44;;;18.27;73.67
9141;BME280;46330;50.822;7.126;2022-10-23T10:10:53;100435.84;;;18.02;74.19
9141;BME280;46330;50.822;7.126;2022-10-23T10:13:35;100431.41;;;17.85;74.67
9141;BME280;46330;50.822;7.126;2022-10-23T10:16:10;100427.47;;;17.77;75.53
9141;BME280;46330;50.822;7.126;2022-10-23T10:18:46;100427.16;;;17.65;76.37
9141;BME280;46330;50.822;7.126;2022-10-23T10:21:20;100421.16;;;17.45;76.17
9141;BME280;46330;50.822;7.126;2022-10-23T10:23:57;100427.91;;;17.50;77.07
9141;BME280;46330;50.822;7.126;2022-10-23T10:26:34;100429.94;;;17.45;77.63
9141;BME280;46330;50.822;7.126;2022-10-23T10:29:16;100420.06;;;17.32;78.22
9141;BME280;46330;50.822;7.126;2022-10-23T10:31:58;100407.00;;;17.29;78.79
9141;BME280;46330;50.822;7.126;2022-10-23T10:34:37;100388.03;;;17.38;79.27
9141;BME280;46330;50.822;7.126;2022-10-23T10:37:18;100374.75;;;17.39;78.36
9141;BME280;46330;50.822;7.126;2022-10-23T10:39:53;100350.63;;;17.45;78.76
9141;BME280;46330;50.822;7.126;2022-10-23T10:42:37;100349.91;;;17.42;78.72
9141;BME280;46330;50.822;7.126;2022-10-23T10:45:17;100345.66;;;17.39;78.95
9141;BME280;46330;50.822;7.126;2022-10-23T10:47:58;100358.22;;;17.34;79.40
9141;BME280;46330;50.822;7.126;2022-10-23T10:50:42;100356.75;;;17.29;79.37
9141;BME280;46330;50.822;7.126;2022-10-23T10:53:24;100350.00;;;17.23;79.82
9141;BME280;46330;50.822;7.126;2022-10-23T10:55:56;100319.25;;;17.05;80.25
9141;BME280;46330;50.822;7.126;2022-10-23T10:58:30;100340.78;;;17.14;80.10
9141;BME280;46330;50.822;7.126;2022-10-23T11:01:06;100335.84;;;17.07;81.16
9141;BME280;46330;50.822;7.126;2022-10-23T11:03:41;100330.66;;;17.05;80.46
9141;BME280;46330;50.822;7.126;2022-10-23T11:06:15;100352.66;;;16.89;81.50
9141;BME280;46330;50.822;7.126;2022-10-23T11:08:46;100372.34;;;16.82;81.79
9141;BME280;46330;50.822;7.126;2022-10-23T11:11:33;100371.28;;;16.69;82.30
9141;BME280;46330;50.822;7.126;2022-10-23T11:14:02;100369.41;;;16.71;82.93
9141;BME280;46330;50.822;7.126;2022-10-23T11:16:33;100370.16;;;16.73;83.73
9141;BME280;46330;50.822;7.126;2022-10-23T11:19:05;100367.78;;;16.68;84.19
9141;BME280;46330;50.822;7.126;2022-10-23T11:21:41;100361.84;;;16.63;84.33
9141;BME280;46330;50.822;7.126;2022-10-23T11:27:30;100346.00;;;16.63;85.83
9141;BME280;46330;50.822;7.126;2022-10-23T11:30:16;100339.16;;;16.59;85.79
9141;BME280;46330;50.822;7.126;2022-10-23T11:32:58;100327.91;;;16.73;85.67
9141;BME280;46330;50.822;7.126;2022-10-23T11:35:44;100335.38;;;16.82;85.36
9141;BME280;46330;50.822;7.126;2022-10-23T11:38:17;100317.75;;;16.82;85.83
9141;BME280;46330;50.822;7.126;2022-10-23T11:40:51;100312.16;;;16.88;84.23
9141;BME280;46330;50.822;7.126;2022-10-23T11:43:28;100305.09;;;16.89;83.51
9141;BME280;46330;50.822;7.126;2022-10-23T11:45:56;100307.75;;;17.06;83.50
9141;BME280;46330;50.822;7.126;2022-10-23T11:48:35;100307.50;;;17.10;82.32
9141;BME280;46330;50.822;7.126;2022-10-23T11:51:04;100302.69;;;17.18;81.57
9141;BME280;46330;50.822;7.126;2022-10-23T11:53:38;100305.63;;;17.30;80.66
9141;BME280;46330;50.822;7.126;2022-10-23T11:56:24;100303.34;;;17.39;81.22
9141;BME280;46330;50.822;7.126;2022-10-23T11:58:53;100298.50;;;17.47;81.75
9141;BME280;46330;50.822;7.126;2022-10-23T12:01:28;100299.88;;;17.54;80.07
9141;BME280;46330;50.822;7.126;2022-10-23T12:03:59;100291.50;;;17.63;79.10
9141;BME280;46330;50.822;7.126;2022-10-23T12:06:31;100284.75;;;17.58;79.72
9141;BME280;46330;50.822;7.126;2022-10-23T12:09:02;100267.00;;;17.60;80.64
9141;BME280;46330;50.822;7.126;2022-10-23T12:11:45;100269.81;;;17.57;81.13
9141;BME280;46330;50.822;7.126;2022-10-23T12:14:31;100268.91;;;17.73;80.51
9141;BME280;46330;50.822;7.126;2022-10-23T12:16:59;100261.81;;;17.74;79.78
9141;BME280;46330;50.822;7.126;2022-10-23T12:19:29;100259.44;;;17.85;79.58
9141;BME280;46330;50.822;7.126;2022-10-23T12:21:59;100261.47;;;17.80;79.20
9141;BME280;46330;50.822;7.126;2022-10-23T12:24:48;100239.19;;;18.00;78.88
9141;BME280;46330;50.822;7.126;2022-10-23T12:27:27;100241.59;;;17.89;78.91
9141;BME280;46330;50.822;7.126;2022-10-23T12:30:13;100230.91;;;18.06;78.06
9141;BME280;46330;50.822;7.126;2022-10-23T12:33:03;100235.38;;;18.05;78.09
9141;BME280;46330;50.822;7.126;2022-10-23T12:36:09;100238.09;;;17.88;78.30
9141;BME280;46330;50.822;7.126;2022-10-23T12:38:43;100237.06;;;18.06;78.15
9141;BME280;46330;50.822;7.126;2022-10-23T12:41:13;100230.31;;;18.01;78.00
9141;BME280;46330;50.822;7.126;2022-10-23T12:43:50;100219.91;;;17.98;77.62
9141;BME280;46330;50.822;7.126;2022-10-23T12:46:29;100214.41;;;18.16;77.81
9141;BME280;46330;50.822;7.126;2022-10-23T12:48:58;100208.53;;;18.11;76.96
9141;BME280;46330;50.822;7.126;2022-10-23T12:51:29;100211.84;;;18.31;76.32
9141;BME280;46330;50.822;7.126;2022-10-23T12:53:58;100205.06;;;18.41;76.55
9141;BME280;46330;50.822;7.126;2022-10-23T12:56:27;100203.44;;;18.38;76.71
9141;BME280;46330;50.822;7.126;2022-10-23T12:59:03;100209.66;;;18.37;76.18
9141;BME280;46330;50.822;7.126;2022-10-23T13:01:37;100203.25;;;18.41;75.59
9141;BME280;46330;50.822;7.126;2022-10-23T13:04:13;100183.69;;;18.44;76.28
9141;BME280;46330;50.822;7.126;2022-10-23T13:06:43;100173.38;;;18.55;75.30
9141;BME280;46330;50.822;7.126;2022-10-23T13:09:20;100170.25;;;18.47;75.97
9141;BME280;46330;50.822;7.126;2022-10-23T13:12:18;100180.63;;;18.51;75.94
9141;BME280;46330;50.822;7.126;2022-10-23T13:14:58;100171.66;;;18.54;75.49
9141;BME280;46330;50.822;7.126;2022-10-23T13:17:35;100171.66;;;18.54;76.04
9141;BME280;46330;50.822;7.126;2022-10-23T13:20:21;100163.44;;;18.58;75.39
9141;BME280;46330;50.822;7.126;2022-10-23T13:22:53;100153.47;;;18.62;75.28
9141;BME280;46330;50.822;7.126;2022-10-23T13:25:28;100148.47;;;18.57;75.48
9141;BME280;46330;50.822;7.126;2022-10-23T13:28:18;100138.16;;;18.53;74.95
9141;BME280;46330;50.822;7.126;2022-10-23T13:31:05;100135.44;;;18.68;75.53
9141;BME280;46330;50.822;7.126;2022-10-23T13:33:36;100144.41;;;18.52;75.32
9141;BME280;46330;50.822;7.126;2022-10-23T13:36:17;100131.66;;;18.58;75.83
9141;BME280;46330;50.822;7.126;2022-10-23T13:38:57;100139.50;;;18.60;75.48